Impacts TAF Board INFO
IDs:

KLAS - Las Vegas/McCarran I, NV, US

Issued at 1120 UTC 05 Dec 2016
Updated at 1431 UTC 05 Dec 2016
Potential Impact None Slight Moderate High
Time1356Z 05/15Z 05/16Z 05/17Z 05/18Z 05/19Z 05/20Z 05/21Z 05/22Z 05/23Z 06/00Z 06/01Z 06/02Z 06/03Z
Type OBS PRVL PRVL PRVL PRVL PRVL PRVL PRVL PRVL PRVL PRVL PRVL PRVL PRVL
VIS 10 >6 >6 >6 >6 >6 >6 >6 >6 >6 >6 >6 >6 >6
CIG -- 250 250 250 250 250 250 250 250 250 250 250 200 200
Cover SCT BKN BKN BKN BKN BKN BKN BKN BKN BKN BKN BKN BKN BKN
FltCat VFR VFR VFR VFR VFR VFR VFR VFR VFR VFR VFR VFR VFR VFR
WX -- -- -- -- -- -- -- -- -- -- -- -- -- --
WDir 280 VRB VRB VRB VRB VRB VRB VRB VRB VRB VRB VRB 210 210
WSpd 4 5 5 5 5 5 5 5 5 5 5 5 6 6
WGst -- -- -- -- -- -- -- -- -- -- -- -- -- --

Raw TAF
KLAS 051120Z 0512/0612 VRB05KT P6SM BKN250
  FM060200 21006KT P6SM BKN200


Raw METAR
KLAS 051356Z 28004KT 10SM SCT250 06/M09 A2991 RMK AO2 SLP128 T00561094
KLAS 051256Z 00000KT 10SM BKN250 06/M11 A2990 RMK AO2 SLP123 T00611106
KLAS 051156Z 20004KT 10SM BKN250 06/M11 A2989 RMK AO2 SLP119 T00561106 10089 20056 58005

METAR Board
Radar Display
Forecast Discussion